sensor_id;sensor_type;location;lat;lon;timestamp;pressure;altitude;pressure_sealevel;temperature;humidity
5296;BME280;2670;42.720;23.336;2023-05-10T00:00:52;-22725.13;;;9.73;100.00
5296;BME280;2670;42.720;23.336;2023-05-10T00:03:19;-22725.56;;;9.75;100.00
5296;BME280;2670;42.720;23.336;2023-05-10T00:05:45;-22723.78;;;9.68;100.00
5296;BME280;2670;42.720;23.336;2023-05-10T00:08:13;-22721.72;;;9.61;100.00
5296;BME280;2670;42.720;23.336;2023-05-10T00:10:40;-22719.34;;;9.53;100.00
5296;BME280;2670;42.720;23.336;2023-05-10T00:13:07;-22719.50;;;9.54;100.00
5296;BME280;2670;42.720;23.336;2023-05-10T00:15:34;-22716.38;;;9.43;100.00
5296;BME280;2670;42.720;23.336;2023-05-10T00:18:01;-22716.81;;;9.44;100.00
5296;BME280;2670;42.720;23.336;2023-05-10T00:20:27;-22715.94;;;9.41;100.00
5296;BME280;2670;42.720;23.336;2023-05-10T00:22:54;-22716.81;;;9.44;100.00
5296;BME280;2670;42.720;23.336;2023-05-10T00:25:22;-22713.72;;;9.34;100.00
5296;BME280;2670;42.720;23.336;2023-05-10T00:27:49;-22716.22;;;9.42;100.00
5296;BME280;2670;42.720;23.336;2023-05-10T00:30:16;-22716.09;;;9.42;100.00
5296;BME280;2670;42.720;23.336;2023-05-10T00:32:42;-22717.56;;;9.47;100.00
5296;BME280;2670;42.720;23.336;2023-05-10T00:35:09;-22715.78;;;9.41;100.00
5296;BME280;2670;42.720;23.336;2023-05-10T00:37:36;-22717.72;;;9.47;100.00
5296;BME280;2670;42.720;23.336;2023-05-10T00:40:03;-22715.78;;;9.41;100.00
5296;BME280;2670;42.720;23.336;2023-05-10T00:42:32;-22714.75;;;9.37;100.00
5296;BME280;2670;42.720;23.336;2023-05-10T00:44:58;-22712.81;;;9.31;100.00
5296;BME280;2670;42.720;23.336;2023-05-10T00:47:25;-22711.78;;;9.27;100.00
5296;BME280;2670;42.720;23.336;2023-05-10T00:49:52;-22711.03;;;9.25;100.00
5296;BME280;2670;42.720;23.336;2023-05-10T00:52:19;-22712.38;;;9.29;100.00
5296;BME280;2670;42.720;23.336;2023-05-10T00:54:46;-22712.38;;;9.29;100.00
5296;BME280;2670;42.720;23.336;2023-05-10T00:57:14;-22711.03;;;9.25;100.00
5296;BME280;2670;42.720;23.336;2023-05-10T00:59:42;-22710.75;;;9.23;100.00
5296;BME280;2670;42.720;23.336;2023-05-10T01:02:09;-22710.75;;;9.23;100.00
5296;BME280;2670;42.720;23.336;2023-05-10T01:04:36;-22710.16;;;9.21;100.00
5296;BME280;2670;42.720;23.336;2023-05-10T01:07:03;-22708.81;;;9.17;100.00
5296;BME280;2670;42.720;23.336;2023-05-10T01:09:30;-22708.81;;;9.17;100.00
5296;BME280;2670;42.720;23.336;2023-05-10T01:11:57;-22707.63;;;9.13;100.00
5296;BME280;2670;42.720;23.336;2023-05-10T01:14:25;-22705.84;;;9.07;100.00
5296;BME280;2670;42.720;23.336;2023-05-10T01:16:54;-22706.88;;;9.10;100.00
5296;BME280;2670;42.720;23.336;2023-05-10T01:19:23;-22707.63;;;9.13;100.00
5296;BME280;2670;42.720;23.336;2023-05-10T01:21:59;-22706.88;;;9.10;100.00
5296;BME280;2670;42.720;23.336;2023-05-10T01:24:42;-22706.75;;;9.10;100.00
5296;BME280;2670;42.720;23.336;2023-05-10T01:27:25;-22704.22;;;9.01;100.00
5296;BME280;2670;42.720;23.336;2023-05-10T01:30:13;-22707.47;;;9.12;100.00
5296;BME280;2670;42.720;23.336;2023-05-10T01:32:50;-22705.41;;;9.05;100.00
5296;BME280;2670;42.720;23.336;2023-05-10T01:35:26;-22704.38;;;9.02;100.00
5296;BME280;2670;42.720;23.336;2023-05-10T01:38:04;-22704.38;;;9.02;100.00
5296;BME280;2670;42.720;23.336;2023-05-10T01:40:36;-22704.66;;;9.03;100.00
5296;BME280;2670;42.720;23.336;2023-05-10T01:43:15;-22701.41;;;8.91;100.00
5296;BME280;2670;42.720;23.336;2023-05-10T01:45:50;-22700.50;;;8.88;100.00
5296;BME280;2670;42.720;23.336;2023-05-10T01:48:19;-22701.09;;;8.90;100.00
5296;BME280;2670;42.720;23.336;2023-05-10T01:50:48;-22699.91;;;8.86;100.00
5296;BME280;2670;42.720;23.336;2023-05-10T01:53:18;-22700.34;;;8.88;100.00
5296;BME280;2670;42.720;23.336;2023-05-10T01:55:47;-22699.16;;;8.84;100.00
5296;BME280;2670;42.720;23.336;2023-05-10T01:58:21;-22699.75;;;8.86;100.00
5296;BME280;2670;42.720;23.336;2023-05-10T02:00:50;-22698.88;;;8.83;100.00
5296;BME280;2670;42.720;23.336;2023-05-10T02:03:22;-22698.13;;;8.80;100.00
5296;BME280;2670;42.720;23.336;2023-05-10T02:05:50;-22698.13;;;8.80;100.00
5296;BME280;2670;42.720;23.336;2023-05-10T02:08:18;-22698.44;;;8.81;100.00
5296;BME280;2670;42.720;23.336;2023-05-10T02:10:47;-22696.06;;;8.73;100.00
5296;BME280;2670;42.720;23.336;2023-05-10T02:13:16;-22695.03;;;8.69;100.00
5296;BME280;2670;42.720;23.336;2023-05-10T02:15:45;-22693.97;;;8.66;100.00
5296;BME280;2670;42.720;23.336;2023-05-10T02:18:14;-22694.13;;;8.66;100.00
5296;BME280;2670;42.720;23.336;2023-05-10T02:20:43;-22695.16;;;8.70;100.00
5296;BME280;2670;42.720;23.336;2023-05-10T02:23:12;-22693.69;;;8.65;100.00
5296;BME280;2670;42.720;23.336;2023-05-10T02:25:40;-22691.59;;;8.58;100.00
5296;BME280;2670;42.720;23.336;2023-05-10T02:28:08;-22693.09;;;8.63;100.00
5296;BME280;2670;42.720;23.336;2023-05-10T02:30:36;-22689.97;;;8.52;100.00
5296;BME280;2670;42.720;23.336;2023-05-10T02:33:04;-22691.75;;;8.58;100.00
5296;BME280;2670;42.720;23.336;2023-05-10T02:35:32;-22689.53;;;8.51;100.00
5296;BME280;2670;42.720;23.336;2023-05-10T02:38:00;-22688.47;;;8.47;100.00
5296;BME280;2670;42.720;23.336;2023-05-10T02:40:28;-22687.44;;;8.43;100.00
5296;BME280;2670;42.720;23.336;2023-05-10T02:42:56;-22686.25;;;8.39;100.00
5296;BME280;2670;42.720;23.336;2023-05-10T02:45:27;-22684.31;;;8.33;100.00
5296;BME280;2670;42.720;23.336;2023-05-10T02:47:55;-22680.00;;;8.18;100.00
5296;BME280;2670;42.720;23.336;2023-05-10T02:50:25;-22680.47;;;8.19;100.00
5296;BME280;2670;42.720;23.336;2023-05-10T02:52:57;-22681.50;;;8.23;100.00
5296;BME280;2670;42.720;23.336;2023-05-10T02:55:32;-22678.69;;;8.13;100.00
5296;BME280;2670;42.720;23.336;2023-05-10T02:58:02;-22678.97;;;8.14;100.00
5296;BME280;2670;42.720;23.336;2023-05-10T03:00:29;-22680.31;;;8.19;100.00
5296;BME280;2670;42.720;23.336;2023-05-10T03:02:56;-22679.88;;;8.17;100.00
5296;BME280;2670;42.720;23.336;2023-05-10T03:05:22;-22677.34;;;8.09;100.00
5296;BME280;2670;42.720;23.336;2023-05-10T03:07:49;-22678.69;;;8.13;100.00
5296;BME280;2670;42.720;23.336;2023-05-10T03:10:17;-22678.53;;;8.13;100.00
5296;BME280;2670;42.720;23.336;2023-05-10T03:13:04;-22677.94;;;8.11;100.00
5296;BME280;2670;42.720;23.336;2023-05-10T03:15:39;-22677.63;;;8.10;100.00
5296;BME280;2670;42.720;23.336;2023-05-10T03:18:10;-22679.41;;;8.16;100.00
5296;BME280;2670;42.720;23.336;2023-05-10T03:20:41;-22679.28;;;8.15;100.00
5296;BME280;2670;42.720;23.336;2023-05-10T03:23:13;-22677.03;;;8.08;100.00
5296;BME280;2670;42.720;23.336;2023-05-10T03:25:41;-22672.44;;;7.92;100.00
5296;BME280;2670;42.720;23.336;2023-05-10T03:28:11;-22672.88;;;7.93;100.00
5296;BME280;2670;42.720;23.336;2023-05-10T03:30:39;-22672.88;;;7.93;100.00
5296;BME280;2670;42.720;23.336;2023-05-10T03:33:07;-22672.59;;;7.92;100.00
5296;BME280;2670;42.720;23.336;2023-05-10T03:35:34;-22670.81;;;7.86;100.00
5296;BME280;2670;42.720;23.336;2023-05-10T03:38:01;-22670.81;;;7.86;100.00
5296;BME280;2670;42.720;23.336;2023-05-10T03:40:28;-22670.50;;;7.85;100.00
5296;BME280;2670;42.720;23.336;2023-05-10T03:42:57;-22669.47;;;7.82;100.00
5296;BME280;2670;42.720;23.336;2023-05-10T03:45:25;-22668.56;;;7.79;100.00
5296;BME280;2670;42.720;23.336;2023-05-10T03:47:51;-22669.31;;;7.81;100.00
5296;BME280;2670;42.720;23.336;2023-05-10T03:50:19;-22666.06;;;7.70;100.00
5296;BME280;2670;42.720;23.336;2023-05-10T03:52:46;-22668.88;;;7.80;100.00
5296;BME280;2670;42.720;23.336;2023-05-10T03:55:13;-22666.19;;;7.70;100.00
5296;BME280;2670;42.720;23.336;2023-05-10T03:57:39;-22667.97;;;7.77;100.00
5296;BME280;2670;42.720;23.336;2023-05-10T04:00:07;-22667.09;;;7.73;100.00
5296;BME280;2670;42.720;23.336;2023-05-10T04:02:36;-22664.56;;;7.65;100.00
5296;BME280;2670;42.720;23.336;2023-05-10T04:05:03;-22666.66;;;7.72;100.00
5296;BME280;2670;42.720;23.336;2023-05-10T04:07:29;-22667.25;;;7.74;100.00
5296;BME280;2670;42.720;23.336;2023-05-10T04:09:56;-22667.25;;;7.74;100.00
5296;BME280;2670;42.720;23.336;2023-05-10T04:12:23;-22665.31;;;7.67;100.00
5296;BME280;2670;42.720;23.336;2023-05-10T04:14:50;-22665.31;;;7.67;100.00
5296;BME280;2670;42.720;23.336;2023-05-10T04:17:17;-22664.56;;;7.65;100.00
5296;BME280;2670;42.720;23.336;2023-05-10T04:19:45;-22665.31;;;7.67;100.00
5296;BME280;2670;42.720;23.336;2023-05-10T04:22:11;-22664.72;;;7.65;100.00
5296;BME280;2670;42.720;23.336;2023-05-10T04:24:38;-22665.00;;;7.66;100.00
5296;BME280;2670;42.720;23.336;2023-05-10T04:27:05;-22665.75;;;7.69;100.00
5296;BME280;2670;42.720;23.336;2023-05-10T04:29:32;-22665.00;;;7.66;100.00
5296;BME280;2670;42.720;23.336;2023-05-10T04:31:58;-22664.72;;;7.65;100.00
5296;BME280;2670;42.720;23.336;2023-05-10T04:34:25;-22666.34;;;7.71;100.00
5296;BME280;2670;42.720;23.336;2023-05-10T04:36:54;-22664.56;;;7.65;100.00
5296;BME280;2670;42.720;23.336;2023-05-10T04:39:20;-22666.34;;;7.71;100.00
5296;BME280;2670;42.720;23.336;2023-05-10T04:41:47;-22664.41;;;7.64;100.00
5296;BME280;2670;42.720;23.336;2023-05-10T04:44:14;-22666.06;;;7.70;100.00
5296;BME280;2670;42.720;23.336;2023-05-10T04:46:41;-22665.16;;;7.67;100.00
5296;BME280;2670;42.720;23.336;2023-05-10T04:49:08;-22668.13;;;7.77;100.00
5296;BME280;2670;42.720;23.336;2023-05-10T04:51:35;-22667.84;;;7.76;100.00
5296;BME280;2670;42.720;23.336;2023-05-10T04:54:03;-22667.25;;;7.74;100.00
5296;BME280;2670;42.720;23.336;2023-05-10T04:56:29;-22665.91;;;7.69;100.00
5296;BME280;2670;42.720;23.336;2023-05-10T04:58:56;-22668.13;;;7.77;100.00
5296;BME280;2670;42.720;23.336;2023-05-10T05:01:23;-22666.19;;;7.70;100.00
5296;BME280;2670;42.720;23.336;2023-05-10T05:03:49;-22667.69;;;7.76;100.00
5296;BME280;2670;42.720;23.336;2023-05-10T05:06:18;-22669.31;;;7.81;100.00
5296;BME280;2670;42.720;23.336;2023-05-10T05:08:46;-22669.63;;;7.82;100.00
5296;BME280;2670;42.720;23.336;2023-05-10T05:11:16;-22667.53;;;7.75;100.00
5296;BME280;2670;42.720;23.336;2023-05-10T05:13:42;-22669.03;;;7.80;100.00
5296;BME280;2670;42.720;23.336;2023-05-10T05:16:09;-22669.63;;;7.82;100.00
5296;BME280;2670;42.720;23.336;2023-05-10T05:18:36;-22667.25;;;7.74;100.00
5296;BME280;2670;42.720;23.336;2023-05-10T05:21:03;-22668.13;;;7.77;100.00
5296;BME280;2670;42.720;23.336;2023-05-10T05:23:29;-22665.00;;;7.66;100.00
5296;BME280;2670;42.720;23.336;2023-05-10T05:25:56;-22668.72;;;7.79;100.00
5296;BME280;2670;42.720;23.336;2023-05-10T05:28:24;-22670.06;;;7.84;100.00
5296;BME280;2670;42.720;23.336;2023-05-10T05:30:51;-22669.03;;;7.80;100.00
5296;BME280;2670;42.720;23.336;2023-05-10T05:33:17;-22668.44;;;7.78;100.00
5296;BME280;2670;42.720;23.336;2023-05-10T05:35:44;-22670.66;;;7.86;100.00
5296;BME280;2670;42.720;23.336;2023-05-10T05:38:16;-22669.31;;;7.81;100.00
5296;BME280;2670;42.720;23.336;2023-05-10T05:40:42;-22668.44;;;7.78;100.00
5296;BME280;2670;42.720;23.336;2023-05-10T05:43:09;-22669.63;;;7.82;100.00
5296;BME280;2670;42.720;23.336;2023-05-10T05:45:37;-22672.00;;;7.90;100.00
5296;BME280;2670;42.720;23.336;2023-05-10T05:48:04;-22668.28;;;7.78;100.00
5296;BME280;2670;42.720;23.336;2023-05-10T05:50:31;-22671.25;;;7.88;100.00
5296;BME280;2670;42.720;23.336;2023-05-10T05:52:58;-22670.81;;;7.86;100.00
5296;BME280;2670;42.720;23.336;2023-05-10T05:55:24;-22672.28;;;7.91;100.00
5296;BME280;2670;42.720;23.336;2023-05-10T05:57:52;-22672.72;;;7.93;100.00
5296;BME280;2670;42.720;23.336;2023-05-10T06:00:19;-22672.88;;;7.93;100.00
5296;BME280;2670;42.720;23.336;2023-05-10T06:02:47;-22672.28;;;7.91;100.00
5296;BME280;2670;42.720;23.336;2023-05-10T06:05:14;-22674.53;;;7.99;100.00
5296;BME280;2670;42.720;23.336;2023-05-10T06:07:41;-22674.97;;;8.01;100.00
5296;BME280;2670;42.720;23.336;2023-05-10T06:10:08;-22673.91;;;7.97;100.00
5296;BME280;2670;42.720;23.336;2023-05-10T06:12:35;-22673.78;;;7.96;100.00
5296;BME280;2670;42.720;23.336;2023-05-10T06:15:02;-22673.34;;;7.95;100.00
5296;BME280;2670;42.720;23.336;2023-05-10T06:17:29;-22673.34;;;7.95;100.00
5296;BME280;2670;42.720;23.336;2023-05-10T06:19:57;-22673.03;;;7.94;100.00
5296;BME280;2670;42.720;23.336;2023-05-10T06:22:24;-22672.59;;;7.92;100.00
5296;BME280;2670;42.720;23.336;2023-05-10T06:24:50;-22672.72;;;7.93;100.00
5296;BME280;2670;42.720;23.336;2023-05-10T06:27:17;-22673.78;;;7.96;100.00
5296;BME280;2670;42.720;23.336;2023-05-10T06:29:44;-22673.47;;;7.95;100.00
5296;BME280;2670;42.720;23.336;2023-05-10T06:32:11;-22675.25;;;8.02;100.00
5296;BME280;2670;42.720;23.336;2023-05-10T06:34:37;-22674.97;;;8.01;100.00
5296;BME280;2670;42.720;23.336;2023-05-10T06:37:06;-22675.25;;;8.02;100.00
5296;BME280;2670;42.720;23.336;2023-05-10T06:39:32;-22676.00;;;8.04;100.00
5296;BME280;2670;42.720;23.336;2023-05-10T06:41:59;-22674.22;;;7.98;100.00
5296;BME280;2670;42.720;23.336;2023-05-10T06:44:27;-22672.16;;;7.91;100.00
5296;BME280;2670;42.720;23.336;2023-05-10T06:46:54;-22676.44;;;8.06;100.00
5296;BME280;2670;42.720;23.336;2023-05-10T06:49:21;-22675.56;;;8.03;100.00
5296;BME280;2670;42.720;23.336;2023-05-10T06:51:48;-22676.44;;;8.06;100.00
5296;BME280;2670;42.720;23.336;2023-05-10T06:54:16;-22676.75;;;8.07;100.00
5296;BME280;2670;42.720;23.336;2023-05-10T06:56:43;-22678.97;;;8.14;100.00
5296;BME280;2670;42.720;23.336;2023-05-10T06:59:09;-22680.47;;;8.19;100.00
5296;BME280;2670;42.720;23.336;2023-05-10T07:01:36;-22679.88;;;8.17;100.00
5296;BME280;2670;42.720;23.336;2023-05-10T07:04:03;-22681.50;;;8.23;100.00
5296;BME280;2670;42.720;23.336;2023-05-10T07:06:30;-22681.19;;;8.22;100.00
5296;BME280;2670;42.720;23.336;2023-05-10T07:08:56;-22681.94;;;8.24;100.00
5296;BME280;2670;42.720;23.336;2023-05-10T07:11:25;-22683.88;;;8.31;100.00
5296;BME280;2670;42.720;23.336;2023-05-10T07:13:52;-22686.25;;;8.39;100.00
5296;BME280;2670;42.720;23.336;2023-05-10T07:16:18;-22684.47;;;8.33;100.00
5296;BME280;2670;42.720;23.336;2023-05-10T07:18:46;-22685.06;;;8.35;100.00
5296;BME280;2670;42.720;23.336;2023-05-10T07:21:13;-22685.38;;;8.36;100.00
5296;BME280;2670;42.720;23.336;2023-05-10T07:23:40;-22686.41;;;8.40;100.00
5296;BME280;2670;42.720;23.336;2023-05-10T07:26:06;-22689.53;;;8.51;100.00
5296;BME280;2670;42.720;23.336;2023-05-10T07:28:36;-22688.19;;;8.46;100.00
5296;BME280;2670;42.720;23.336;2023-05-10T07:31:04;-22689.97;;;8.52;100.00
5296;BME280;2670;42.720;23.336;2023-05-10T07:33:31;-22689.97;;;8.52;100.00
5296;BME280;2670;42.720;23.336;2023-05-10T07:35:57;-22690.56;;;8.54;100.00
5296;BME280;2670;42.720;23.336;2023-05-10T07:38:24;-22691.31;;;8.57;100.00
5296;BME280;2670;42.720;23.336;2023-05-10T07:40:51;-22691.31;;;8.57;100.00
5296;BME280;2670;42.720;23.336;2023-05-10T07:43:17;-22692.94;;;8.62;100.00
5296;BME280;2670;42.720;23.336;2023-05-10T07:45:45;-22694.56;;;8.68;100.00
5296;BME280;2670;42.720;23.336;2023-05-10T07:48:12;-22695.31;;;8.70;100.00
5296;BME280;2670;42.720;23.336;2023-05-10T07:50:39;-22696.94;;;8.76;100.00
5296;BME280;2670;42.720;23.336;2023-05-10T07:53:06;-22697.25;;;8.77;100.00
5296;BME280;2670;42.720;23.336;2023-05-10T07:55:35;-22698.72;;;8.82;100.00
5296;BME280;2670;42.720;23.336;2023-05-10T07:58:02;-22698.28;;;8.81;100.00
5296;BME280;2670;42.720;23.336;2023-05-10T08:00:29;-22700.22;;;8.87;100.00
5296;BME280;2670;42.720;23.336;2023-05-10T08:02:57;-22700.66;;;8.89;100.00
5296;BME280;2670;42.720;23.336;2023-05-10T08:05:24;-22701.41;;;8.91;100.00
5296;BME280;2670;42.720;23.336;2023-05-10T08:07:50;-22701.84;;;8.93;100.00
5296;BME280;2670;42.720;23.336;2023-05-10T08:10:17;-22704.66;;;9.03;100.00
5296;BME280;2670;42.720;23.336;2023-05-10T08:12:44;-22704.97;;;9.04;100.00
5296;BME280;2670;42.720;23.336;2023-05-10T08:15:11;-22705.25;;;9.05;100.00
5296;BME280;2670;42.720;23.336;2023-05-10T08:17:37;-22708.38;;;9.15;100.00
5296;BME280;2670;42.720;23.336;2023-05-10T08:20:06;-22707.19;;;9.11;100.00
5296;BME280;2670;42.720;23.336;2023-05-10T08:22:33;-22708.06;;;9.14;100.00
5296;BME280;2670;42.720;23.336;2023-05-10T08:25:00;-22708.06;;;9.14;100.00
5296;BME280;2670;42.720;23.336;2023-05-10T08:27:27;-22710.31;;;9.22;100.00
5296;BME280;2670;42.720;23.336;2023-05-10T08:29:54;-22708.97;;;9.17;100.00
5296;BME280;2670;42.720;23.336;2023-05-10T08:32:20;-22708.22;;;9.15;100.00
5296;BME280;2670;42.720;23.336;2023-05-10T08:34:47;-22707.94;;;9.14;100.00
5296;BME280;2670;42.720;23.336;2023-05-10T08:37:15;-22708.53;;;9.16;100.00
5296;BME280;2670;42.720;23.336;2023-05-10T08:39:42;-22709.25;;;9.18;100.00
5296;BME280;2670;42.720;23.336;2023-05-10T08:42:09;-22709.13;;;9.18;100.00
5296;BME280;2670;42.720;23.336;2023-05-10T08:44:36;-22709.41;;;9.19;100.00
5296;BME280;2670;42.720;23.336;2023-05-10T08:47:05;-22710.44;;;9.22;100.00
5296;BME280;2670;42.720;23.336;2023-05-10T08:49:32;-22713.41;;;9.33;100.00
5296;BME280;2670;42.720;23.336;2023-05-10T08:52:02;-22711.78;;;9.27;100.00
5296;BME280;2670;42.720;23.336;2023-05-10T08:54:31;-22713.72;;;9.34;100.00
5296;BME280;2670;42.720;23.336;2023-05-10T08:56:58;-22714.44;;;9.36;100.00
5296;BME280;2670;42.720;23.336;2023-05-10T08:59:25;-22716.81;;;9.44;100.00
5296;BME280;2670;42.720;23.336;2023-05-10T09:01:52;-22715.03;;;9.38;100.00
5296;BME280;2670;42.720;23.336;2023-05-10T09:04:20;-22713.41;;;9.33;100.00
5296;BME280;2670;42.720;23.336;2023-05-10T09:06:47;-22714.75;;;9.37;100.00
5296;BME280;2670;42.720;23.336;2023-05-10T09:09:14;-22716.53;;;9.43;100.00
5296;BME280;2670;42.720;23.336;2023-05-10T09:11:44;-22716.81;;;9.44;100.00
5296;BME280;2670;42.720;23.336;2023-05-10T09:14:12;-22717.28;;;9.46;100.00
5296;BME280;2670;42.720;23.336;2023-05-10T09:16:39;-22714.31;;;9.36;100.00
5296;BME280;2670;42.720;23.336;2023-05-10T09:19:06;-22714.16;;;9.35;100.00
5296;BME280;2670;42.720;23.336;2023-05-10T09:21:34;-22713.84;;;9.34;100.00
5296;BME280;2670;42.720;23.336;2023-05-10T09:24:03;-22711.19;;;9.25;100.00
5296;BME280;2670;42.720;23.336;2023-05-10T09:26:30;-22713.28;;;9.32;100.00
5296;BME280;2670;42.720;23.336;2023-05-10T09:28:59;-22713.28;;;9.32;100.00
5296;BME280;2670;42.720;23.336;2023-05-10T09:31:43;-22712.97;;;9.31;100.00
5296;BME280;2670;42.720;23.336;2023-05-10T09:34:10;-22716.38;;;9.43;100.00
5296;BME280;2670;42.720;23.336;2023-05-10T09:36:50;-22715.78;;;9.41;100.00
5296;BME280;2670;42.720;23.336;2023-05-10T09:39:17;-22716.38;;;9.43;100.00
5296;BME280;2670;42.720;23.336;2023-05-10T09:41:43;-22719.78;;;9.55;100.00
5296;BME280;2670;42.720;23.336;2023-05-10T09:44:12;-22718.75;;;9.51;100.00
5296;BME280;2670;42.720;23.336;2023-05-10T09:46:43;-22721.88;;;9.62;100.00
5296;BME280;2670;42.720;23.336;2023-05-10T09:49:14;-22723.78;;;9.68;100.00
5296;BME280;2670;42.720;23.336;2023-05-10T09:51:41;-22723.94;;;9.69;100.00
5296;BME280;2670;42.720;23.336;2023-05-10T09:54:12;-22724.69;;;9.71;100.00
5296;BME280;2670;42.720;23.336;2023-05-10T09:56:39;-22727.78;;;9.82;100.00
5296;BME280;2670;42.720;23.336;2023-05-10T09:59:07;-22729.72;;;9.89;100.00
5296;BME280;2670;42.720;23.336;2023-05-10T10:01:36;-22729.28;;;9.87;100.00
5296;BME280;2670;42.720;23.336;2023-05-10T10:04:04;-22731.34;;;9.94;100.00
5296;BME280;2670;42.720;23.336;2023-05-10T10:06:35;-22732.25;;;9.97;100.00
5296;BME280;2670;42.720;23.336;2023-05-10T10:09:02;-22733.88;;;10.03;100.00
5296;BME280;2670;42.720;23.336;2023-05-10T10:11:28;-22735.38;;;10.08;100.00
5296;BME280;2670;42.720;23.336;2023-05-10T10:13:55;-22738.47;;;10.19;100.00
5296;BME280;2670;42.720;23.336;2023-05-10T10:16:22;-22739.06;;;10.21;100.00
5296;BME280;2670;42.720;23.336;2023-05-10T10:18:51;-22745.16;;;10.42;100.00
5296;BME280;2670;42.720;23.336;2023-05-10T10:21:19;-22746.34;;;10.46;100.00
5296;BME280;2670;42.720;23.336;2023-05-10T10:23:46;-22749.28;;;10.56;100.00
5296;BME280;2670;42.720;23.336;2023-05-10T10:26:13;-22747.97;;;10.52;100.00
5296;BME280;2670;42.720;23.336;2023-05-10T10:28:48;-22749.00;;;10.55;100.00
5296;BME280;2670;42.720;23.336;2023-05-10T10:31:23;-22750.19;;;10.59;100.00
5296;BME280;2670;42.720;23.336;2023-05-10T10:34:00;-22751.38;;;10.63;100.00
5296;BME280;2670;42.720;23.336;2023-05-10T10:36:28;-22754.03;;;10.72;100.00
5296;BME280;2670;42.720;23.336;2023-05-10T10:38:59;-22753.88;;;10.72;100.00
5296;BME280;2670;42.720;23.336;2023-05-10T10:41:33;-22753.59;;;10.71;100.00
5296;BME280;2670;42.720;23.336;2023-05-10T10:44:25;-22751.38;;;10.63;100.00
5296;BME280;2670;42.720;23.336;2023-05-10T10:47:03;-22751.22;;;10.63;100.00
5296;BME280;2670;42.720;23.336;2023-05-10T10:49:33;-22751.81;;;10.65;100.00
5296;BME280;2670;42.720;23.336;2023-05-10T10:52:14;-22751.22;;;10.63;100.00
5296;BME280;2670;42.720;23.336;2023-05-10T10:54:41;-22750.31;;;10.60;100.00
5296;BME280;2670;42.720;23.336;2023-05-10T10:57:11;-22749.16;;;10.56;100.00
5296;BME280;2670;42.720;23.336;2023-05-10T10:59:41;-22749.16;;;10.56;100.00
5296;BME280;2670;42.720;23.336;2023-05-10T11:02:09;-22750.47;;;10.60;100.00
5296;BME280;2670;42.720;23.336;2023-05-10T11:04:43;-22751.22;;;10.63;100.00
5296;BME280;2670;42.720;23.336;2023-05-10T11:07:18;-22749.28;;;10.56;100.00
5296;BME280;2670;42.720;23.336;2023-05-10T11:09:46;-22752.84;;;10.68;100.00
5296;BME280;2670;42.720;23.336;2023-05-10T11:12:13;-22754.63;;;10.75;100.00
5296;BME280;2670;42.720;23.336;2023-05-10T11:14:40;-22755.06;;;10.76;100.00
5296;BME280;2670;42.720;23.336;2023-05-10T11:17:24;-22755.97;;;10.79;100.00
5296;BME280;2670;42.720;23.336;2023-05-10T11:20:10;-22757.88;;;10.86;100.00
5296;BME280;2670;42.720;23.336;2023-05-10T11:22:49;-22758.03;;;10.86;100.00
5296;BME280;2670;42.720;23.336;2023-05-10T11:25:17;-22757.28;;;10.84;100.00
5296;BME280;2670;42.720;23.336;2023-05-10T11:27:43;-22757.72;;;10.85;100.00
5296;BME280;2670;42.720;23.336;2023-05-10T11:30:11;-22760.41;;;10.94;100.00
5296;BME280;2670;42.720;23.336;2023-05-10T11:32:38;-22759.22;;;10.90;100.00
5296;BME280;2670;42.720;23.336;2023-05-10T11:35:08;-22762.63;;;11.02;100.00
5296;BME280;2670;42.720;23.336;2023-05-10T11:37:35;-22760.84;;;10.96;100.00
5296;BME280;2670;42.720;23.336;2023-05-10T11:40:04;-22764.84;;;11.10;100.00
5296;BME280;2670;42.720;23.336;2023-05-10T11:42:30;-22762.75;;;11.03;100.00
5296;BME280;2670;42.720;23.336;2023-05-10T11:44:57;-22759.22;;;10.90;100.00
5296;BME280;2670;42.720;23.336;2023-05-10T11:47:24;-22761.88;;;11.00;100.00
5296;BME280;2670;42.720;23.336;2023-05-10T11:49:51;-22762.91;;;11.03;100.00
5296;BME280;2670;42.720;23.336;2023-05-10T11:52:19;-22761.72;;;10.99;100.00
5296;BME280;2670;42.720;23.336;2023-05-10T11:54:51;-22761.28;;;10.97;100.00
5296;BME280;2670;42.720;23.336;2023-05-10T11:57:18;-22762.47;;;11.02;100.00
5296;BME280;2670;42.720;23.336;2023-05-10T11:59:45;-22762.47;;;11.02;100.00
5296;BME280;2670;42.720;23.336;2023-05-10T12:02:12;-22762.63;;;11.02;100.00
5296;BME280;2670;42.720;23.336;2023-05-10T12:04:40;-22764.53;;;11.09;100.00
5296;BME280;2670;42.720;23.336;2023-05-10T12:07:07;-22764.53;;;11.09;100.00
5296;BME280;2670;42.720;23.336;2023-05-10T12:09:35;-22762.91;;;11.03;100.00
5296;BME280;2670;42.720;23.336;2023-05-10T12:12:02;-22765.72;;;11.13;100.00
5296;BME280;2670;42.720;23.336;2023-05-10T12:14:29;-22765.44;;;11.12;100.00
5296;BME280;2670;42.720;23.336;2023-05-10T12:17:00;-22767.81;;;11.20;100.00
5296;BME280;2670;42.720;23.336;2023-05-10T12:19:27;-22767.34;;;11.18;100.00
5296;BME280;2670;42.720;23.336;2023-05-10T12:21:56;-22767.22;;;11.18;100.00
5296;BME280;2670;42.720;23.336;2023-05-10T12:24:24;-22766.63;;;11.16;100.00
5296;BME280;2670;42.720;23.336;2023-05-10T12:26:52;-22764.09;;;11.07;100.00
5296;BME280;2670;42.720;23.336;2023-05-10T12:29:19;-22766.03;;;11.14;100.00
5296;BME280;2670;42.720;23.336;2023-05-10T12:31:52;-22766.91;;;11.17;100.00
5296;BME280;2670;42.720;23.336;2023-05-10T12:34:25;-22767.94;;;11.20;100.00
5296;BME280;2670;42.720;23.336;2023-05-10T12:36:52;-22767.22;;;11.18;100.00
5296;BME280;2670;42.720;23.336;2023-05-10T12:39:19;-22767.22;;;11.18;100.00
5296;BME280;2670;42.720;23.336;2023-05-10T12:41:46;-22768.97;;;11.24;100.00
5296;BME280;2670;42.720;23.336;2023-05-10T12:44:14;-22769.56;;;11.26;100.00
5296;BME280;2670;42.720;23.336;2023-05-10T12:46:41;-22766.03;;;11.14;100.00
5296;BME280;2670;42.720;23.336;2023-05-10T12:49:07;-22766.03;;;11.14;100.00
5296;BME280;2670;42.720;23.336;2023-05-10T12:51:34;-22767.22;;;11.18;100.00
5296;BME280;2670;42.720;23.336;2023-05-10T12:54:02;-22765.00;;;11.10;100.00
5296;BME280;2670;42.720;23.336;2023-05-10T12:56:28;-22764.25;;;11.08;100.00
5296;BME280;2670;42.720;23.336;2023-05-10T12:58:55;-22762.63;;;11.02;100.00
5296;BME280;2670;42.720;23.336;2023-05-10T13:01:23;-22763.06;;;11.04;100.00
5296;BME280;2670;42.720;23.336;2023-05-10T13:03:50;-22764.69;;;11.09;100.00